Time;durP1;ratioP1;P1;durP2;ratioP2;P2;SDS_P1;SDS_P2;PMS_P1;PMS_P2;Temp;Humidity;BMP_temperature;BMP_pressure;BME280_temperature;BME280_humidity;BME280_pressure;Samples;Min_cycle;Max_cycle;Signal;HPM_P1;HPM_P2
2022/08/07 00:00:52;;;;;;;6.17;5.57;;;;;;;-141.28;100.00;45763.94;5074175;28;20197;-76
2022/08/07 00:03:20;;;;;;;6.50;5.60;;;;;;;-141.28;100.00;45748.25;5074287;28;20212;-76
2022/08/07 00:05:47;;;;;;;6.70;5.77;;;;;;;-141.28;100.00;45728.66;5074911;28;20200;-76
2022/08/07 00:08:16;;;;;;;7.37;5.70;;;;;;;-141.28;100.00;45718.84;5074473;28;20196;-74
2022/08/07 00:10:44;;;;;;;7.03;5.17;;;;;;;-141.28;100.00;45703.19;5072066;28;20261;-75
2022/08/07 00:13:13;;;;;;;5.70;4.80;;;;;;;-141.28;100.00;45707.09;5073822;28;20196;-75
2022/08/07 00:15:40;;;;;;;7.93;5.23;;;;;;;-141.28;100.00;45703.19;5073545;28;20192;-74
2022/08/07 00:18:08;;;;;;;5.70;5.20;;;;;;;-141.28;100.00;45718.84;5072570;28;20224;-76
2022/08/07 00:20:35;;;;;;;8.57;5.60;;;;;;;-141.28;100.00;45716.91;5073476;28;20280;-77
2022/08/07 00:23:05;;;;;;;7.70;5.10;;;;;;;-141.28;100.00;45709.06;5087290;28;20204;-76
2022/08/07 00:25:35;;;;;;;6.03;5.40;;;;;;;-141.28;100.00;45701.22;5093157;28;20668;-74
2022/08/07 00:28:02;;;;;;;8.00;5.13;;;;;;;-141.28;100.00;45685.53;5092457;28;20226;-75
2022/08/07 00:30:30;;;;;;;6.53;5.57;;;;;;;-141.28;100.00;45697.28;5092932;28;20221;-73
2022/08/07 00:32:59;;;;;;;6.93;5.30;;;;;;;-141.28;100.00;45697.28;5092355;28;20196;-76
2022/08/07 00:35:27;;;;;;;6.40;5.80;;;;;;;-141.28;100.00;45697.28;5092622;28;20239;-74
2022/08/07 00:37:54;;;;;;;5.67;5.13;;;;;;;-141.28;100.00;45705.13;5092108;27;20219;-75
2022/08/07 00:40:23;;;;;;;6.47;5.53;;;;;;;-141.28;100.00;45697.28;5092820;28;20192;-76
2022/08/07 00:42:51;;;;;;;9.67;5.73;;;;;;;-141.28;100.00;45703.19;5091561;28;20206;-77
2022/08/07 00:45:20;;;;;;;6.37;5.70;;;;;;;-141.28;100.00;45709.06;5092419;28;20574;-76
2022/08/07 00:47:47;;;;;;;7.53;6.03;;;;;;;-141.28;100.00;45669.84;5091649;28;20573;-75
2022/08/07 00:50:15;;;;;;;9.53;6.53;;;;;;;-141.28;100.00;45632.63;5092563;28;20607;-75
2022/08/07 00:52:42;;;;;;;6.60;5.83;;;;;;;-141.28;100.00;45614.97;5087361;28;20208;-75
2022/08/07 00:55:10;;;;;;;8.37;6.50;;;;;;;-141.28;100.00;45583.63;5072651;28;20207;-76
2022/08/07 00:57:38;;;;;;;6.80;5.37;;;;;;;-141.28;100.00;45560.09;5085780;28;20309;-75
2022/08/07 01:00:08;;;;;;;9.87;5.87;;;;;;;-141.28;100.00;45562.06;5072423;28;20654;-74
2022/08/07 01:02:35;;;;;;;6.40;5.70;;;;;;;-141.28;100.00;45569.91;5073317;28;20225;-74
2022/08/07 01:05:07;;;;;;;7.77;5.60;;;;;;;-141.28;100.00;45587.53;5072815;28;20197;-75
2022/08/07 01:07:34;;;;;;;9.53;5.80;;;;;;;-141.28;100.00;45593.41;5072388;28;20204;-75
2022/08/07 01:10:05;;;;;;;6.73;5.53;;;;;;;-141.28;100.00;45595.38;5072939;28;20200;-75
2022/08/07 01:12:32;;;;;;;9.00;6.07;;;;;;;-141.28;100.00;45573.81;5085457;28;20218;-76
2022/08/07 01:15:01;;;;;;;6.50;5.43;;;;;;;-141.28;100.00;45556.16;5073175;28;20203;-75
2022/08/07 01:17:30;;;;;;;6.73;6.07;;;;;;;-141.28;100.00;45554.22;5072273;28;20312;-75
2022/08/07 01:20:04;;;;;;;6.67;5.83;;;;;;;-141.28;100.00;45556.16;5072516;28;20626;-74
2022/08/07 01:22:32;;;;;;;6.33;5.53;;;;;;;-141.28;100.00;45565.97;5072303;28;20200;-75
2022/08/07 01:25:01;;;;;;;6.10;5.30;;;;;;;-141.28;100.00;45565.97;5073977;28;20196;-74
2022/08/07 01:27:29;;;;;;;6.97;6.27;;;;;;;-141.28;100.00;45569.91;5072832;28;20563;-76
2022/08/07 01:29:58;;;;;;;6.50;5.27;;;;;;;-141.28;100.00;45577.72;5072629;28;20246;-76
2022/08/07 01:32:25;;;;;;;8.53;6.00;;;;;;;-141.28;100.00;45579.69;5071595;28;20290;-75
2022/08/07 01:34:53;;;;;;;7.37;5.53;;;;;;;-141.28;100.00;45583.63;5071113;28;20239;-75
2022/08/07 01:37:20;;;;;;;6.60;5.97;;;;;;;-141.28;100.00;45585.56;5071670;28;20223;-75
2022/08/07 01:39:50;;;;;;;8.73;6.23;;;;;;;-141.28;100.00;45583.63;5072541;28;20208;-77
2022/08/07 01:42:19;;;;;;;6.90;6.20;;;;;;;-141.28;100.00;45624.78;5074141;28;20208;-76
2022/08/07 01:44:47;;;;;;;6.53;5.93;;;;;;;-141.28;100.00;45599.28;5092742;28;20196;-73
2022/08/07 01:47:14;;;;;;;7.17;6.47;;;;;;;-141.28;100.00;45607.13;5079209;28;20192;-74
2022/08/07 01:49:42;;;;;;;7.70;5.50;;;;;;;-141.28;100.00;45599.28;5092402;28;20195;-75
2022/08/07 01:52:10;;;;;;;8.57;6.20;;;;;;;-141.28;100.00;45618.91;5092013;28;20199;-76
2022/08/07 01:54:41;;;;;;;8.20;6.43;;;;;;;-141.28;100.00;45601.25;5070585;28;20538;-75
2022/08/07 01:57:15;;;;;;;16.30;5.93;;;;;;;-141.28;100.00;45609.09;5072100;28;20319;-73
2022/08/07 01:59:49;;;;;;;6.40;5.70;;;;;;;-141.28;100.00;45618.91;5078808;28;20207;-77
2022/08/07 02:02:24;;;;;;;7.00;6.10;;;;;;;-141.28;100.00;45626.72;5090442;28;20195;-74
2022/08/07 02:04:58;;;;;;;16.13;7.13;;;;;;;-141.28;100.00;45642.41;5080643;28;20286;-75
2022/08/07 02:07:30;;;;;;;9.10;6.90;;;;;;;-141.28;100.00;45618.91;5076514;28;20192;-74
2022/08/07 02:09:58;;;;;;;9.23;7.17;;;;;;;-141.28;100.00;45607.13;5080895;28;20204;-75
2022/08/07 02:12:31;;;;;;;8.43;7.47;;;;;;;-141.28;100.00;45605.19;5075183;28;20686;-74
2022/08/07 02:15:00;;;;;;;16.60;7.90;;;;;;;-141.28;100.00;45587.53;5071398;28;20196;-76
2022/08/07 02:17:29;;;;;;;8.93;7.47;;;;;;;-141.28;100.00;45552.25;5080674;28;20234;-73
2022/08/07 02:19:59;;;;;;;8.70;7.30;;;;;;;-141.28;100.00;45507.19;5090228;28;20654;-75
2022/08/07 02:22:28;;;;;;;9.43;7.67;;;;;;;-141.28;100.00;45466.00;5091022;28;20208;-74
2022/08/07 02:24:57;;;;;;;8.37;7.00;;;;;;;-141.28;100.00;45415.06;5090394;28;20198;-77
2022/08/07 02:27:28;;;;;;;8.83;6.67;;;;;;;-141.28;100.00;45344.50;5077101;28;20224;-74
2022/08/07 02:29:58;;;;;;;9.57;6.87;;;;;;;-141.28;100.00;45301.38;5075974;28;20192;-77
2022/08/07 02:32:26;;;;;;;8.50;6.90;;;;;;;-141.28;100.00;45273.94;5091950;28;20224;-75
2022/08/07 02:34:56;;;;;;;9.13;7.27;;;;;;;-141.28;100.00;45258.25;5089773;28;20608;-75
2022/08/07 02:37:24;;;;;;;11.37;7.63;;;;;;;-141.28;100.00;45254.34;5091537;28;20292;-75
2022/08/07 02:39:53;;;;;;;12.90;7.37;;;;;;;-141.28;100.00;45297.47;5090077;28;20195;-76
2022/08/07 02:42:21;;;;;;;11.10;7.47;;;;;;;-141.28;100.00;45262.19;5089984;28;20589;-76
2022/08/07 02:44:52;;;;;;;9.90;7.43;;;;;;;-141.28;100.00;45270.03;5090527;28;20203;-75
2022/08/07 02:47:20;;;;;;;9.30;6.90;;;;;;;-141.28;100.00;45281.78;5092003;28;20236;-77
2022/08/07 02:49:47;;;;;;;9.23;7.17;;;;;;;-141.28;100.00;45326.84;5094671;28;20245;-75
2022/08/07 02:52:19;;;;;;;10.27;7.93;;;;;;;-141.28;100.00;45297.47;5092720;28;20203;-74
2022/08/07 02:54:48;;;;;;;8.77;6.70;;;;;;;-141.28;100.00;45295.50;5094385;28;20200;-77
2022/08/07 02:57:20;;;;;;;8.80;6.63;;;;;;;-141.28;100.00;45324.91;5091051;28;20200;-74
2022/08/07 02:59:50;;;;;;;8.93;7.60;;;;;;;-141.28;100.00;45332.75;5084653;28;20203;-76
2022/08/07 03:02:19;;;;;;;10.10;7.53;;;;;;;-141.28;100.00;45307.25;5089052;28;20210;-76
2022/08/07 03:04:48;;;;;;;11.57;7.00;;;;;;;-141.28;100.00;45305.31;5085698;28;20218;-76
2022/08/07 03:07:17;;;;;;;9.87;6.53;;;;;;;-141.28;100.00;45334.69;5080199;28;20207;-75
2022/08/07 03:09:45;;;;;;;7.03;6.17;;;;;;;-141.28;100.00;45383.69;5094735;28;20200;-77
2022/08/07 03:12:13;;;;;;;7.73;6.40;;;;;;;-141.28;100.00;45344.50;5094237;28;20199;-74
2022/08/07 03:14:42;;;;;;;9.80;7.27;;;;;;;-141.28;100.00;45336.66;5095517;27;20257;-76
2022/08/07 03:17:10;;;;;;;9.63;7.23;;;;;;;-141.28;100.00;45332.75;5093572;28;20204;-76
2022/08/07 03:19:40;;;;;;;9.00;7.47;;;;;;;-141.28;100.00;45313.13;5094201;28;20662;-75
2022/08/07 03:22:08;;;;;;;9.53;7.33;;;;;;;-141.28;100.00;45301.38;5093476;28;20200;-74
2022/08/07 03:24:35;;;;;;;9.20;7.63;;;;;;;-141.28;100.00;45332.75;5095638;28;20204;-73
2022/08/07 03:27:05;;;;;;;8.83;7.60;;;;;;;-141.28;100.00;45336.66;5094158;28;20241;-74
2022/08/07 03:29:37;;;;;;;11.77;7.03;;;;;;;-141.28;100.00;45332.75;5094040;28;20573;-76
2022/08/07 03:32:07;;;;;;;9.37;7.17;;;;;;;-141.28;100.00;45336.66;5074752;28;20196;-76
2022/08/07 03:34:39;;;;;;;8.10;7.30;;;;;;;-141.28;100.00;45309.22;5074048;28;20207;-75
2022/08/07 03:37:12;;;;;;;9.27;7.43;;;;;;;-141.28;100.00;45285.69;5073880;28;20196;-76
2022/08/07 03:39:40;;;;;;;9.63;7.40;;;;;;;-141.28;100.00;45283.75;5074139;28;20243;-76
2022/08/07 03:42:10;;;;;;;8.60;7.00;;;;;;;-141.28;100.00;45275.91;5074005;28;20204;-74
2022/08/07 03:44:38;;;;;;;8.37;7.47;;;;;;;-141.28;100.00;45273.94;5073929;28;20200;-76
2022/08/07 03:47:07;;;;;;;9.43;7.43;;;;;;;-141.28;100.00;45238.66;5074229;28;20220;-76
2022/08/07 03:49:35;;;;;;;9.37;7.93;;;;;;;-141.28;100.00;45223.00;5079948;28;20199;-75
2022/08/07 03:52:08;;;;;;;10.43;7.60;;;;;;;-141.28;100.00;45195.56;5082592;28;20208;-75
2022/08/07 03:54:36;;;;;;;7.77;7.07;;;;;;;-141.28;100.00;45144.59;5084945;28;20203;-75
2022/08/07 03:57:05;;;;;;;8.97;7.90;;;;;;;-141.28;100.00;45111.28;5092528;28;20669;-76
2022/08/07 03:59:33;;;;;;;10.23;7.80;;;;;;;-141.28;100.00;45117.16;5078518;28;20228;-74
2022/08/07 04:02:01;;;;;;;8.20;7.30;;;;;;;-141.28;100.00;45113.25;5081197;28;20199;-77
2022/08/07 04:04:29;;;;;;;12.53;8.13;;;;;;;-141.28;100.00;45103.44;5073539;28;20196;-76
2022/08/07 04:06:57;;;;;;;9.70;7.67;;;;;;;-141.28;100.00;45117.16;5072274;28;20200;-75
2022/08/07 04:09:27;;;;;;;9.80;7.70;;;;;;;-141.28;100.00;45130.88;5073941;28;20192;-75
2022/08/07 04:11:55;;;;;;;13.77;7.43;;;;;;;-141.28;100.00;45144.59;5073633;28;20286;-73
2022/08/07 04:14:24;;;;;;;8.83;7.50;;;;;;;-141.28;100.00;45168.13;5073696;28;20208;-75
2022/08/07 04:16:52;;;;;;;10.00;7.53;;;;;;;-141.28;100.00;45136.75;5092957;28;20187;-76
2022/08/07 04:19:19;;;;;;;9.37;7.27;;;;;;;-141.28;100.00;45140.69;5092768;28;20332;-75
2022/08/07 04:21:47;;;;;;;7.77;6.67;;;;;;;-141.28;100.00;45195.56;5093145;28;20203;-74
2022/08/07 04:24:14;;;;;;;9.63;7.20;;;;;;;-141.28;100.00;45258.25;5092115;28;20195;-75
2022/08/07 04:26:44;;;;;;;9.20;7.10;;;;;;;-141.28;100.00;45273.94;5092857;27;20242;-74
2022/08/07 04:29:15;;;;;;;9.03;7.17;;;;;;;-141.28;100.00;45293.53;5091322;28;20208;-74
2022/08/07 04:31:42;;;;;;;7.40;6.67;;;;;;;-141.28;100.00;45324.91;5092558;28;20203;-75
2022/08/07 04:34:10;;;;;;;8.77;7.17;;;;;;;-141.28;100.00;45291.59;5090717;28;20216;-76
2022/08/07 04:36:37;;;;;;;8.77;6.37;;;;;;;-141.28;100.00;45336.66;5091862;28;20607;-75
2022/08/07 04:39:05;;;;;;;10.00;6.93;;;;;;;-141.28;100.00;45371.94;5090330;28;20232;-74
2022/08/07 04:41:33;;;;;;;8.00;6.70;;;;;;;-141.28;100.00;45397.41;5091877;28;20268;-75
2022/08/07 04:44:03;;;;;;;7.90;7.10;;;;;;;-141.28;100.00;45401.34;5090431;28;20226;-77
2022/08/07 04:46:36;;;;;;;8.00;6.57;;;;;;;-141.28;100.00;45403.28;5091853;28;20195;-79
2022/08/07 04:49:14;;;;;;;9.83;7.33;;;;;;;-141.28;100.00;45364.09;5089964;28;20196;-76
2022/08/07 04:51:54;;;;;;;9.17;6.93;;;;;;;-141.28;100.00;45350.38;5089873;28;20204;-77
2022/08/07 04:54:30;;;;;;;8.33;6.90;;;;;;;-141.28;100.00;45324.91;5071767;28;20330;-75
2022/08/07 04:57:07;;;;;;;8.07;6.80;;;;;;;-141.28;100.00;45319.03;5089475;28;20223;-77
2022/08/07 04:59:44;;;;;;;8.20;7.17;;;;;;;-141.28;100.00;45336.66;5091661;28;20230;-75
2022/08/07 05:02:17;;;;;;;7.77;6.97;;;;;;;-141.28;100.00;45340.59;5089025;28;20265;-75
2022/08/07 05:04:53;;;;;;;9.17;7.17;;;;;;;-141.28;100.00;45332.75;5083183;28;20196;-75
2022/08/07 05:07:28;;;;;;;9.07;7.20;;;;;;;-141.28;100.00;45328.81;5087252;28;20200;-76
2022/08/07 05:10:02;;;;;;;9.07;6.63;;;;;;;-141.28;100.00;45309.22;5085430;28;20195;-74
2022/08/07 05:12:36;;;;;;;7.70;6.60;;;;;;;-141.28;100.00;45313.13;5061307;28;20227;-74
2022/08/07 05:15:16;;;;;;;7.40;6.70;;;;;;;-141.28;100.00;45307.25;5073505;28;20204;-76
2022/08/07 05:17:50;;;;;;;8.83;6.27;;;;;;;-141.28;100.00;45283.75;5092635;28;20205;-75
2022/08/07 05:20:25;;;;;;;7.87;7.10;;;;;;;-141.28;100.00;45309.22;5087866;28;20211;-77
2022/08/07 05:22:56;;;;;;;8.07;7.27;;;;;;;-141.28;100.00;45293.53;5084119;28;20195;-75
2022/08/07 05:25:25;;;;;;;10.50;6.80;;;;;;;-141.28;100.00;45270.03;5092175;28;20201;-76
2022/08/07 05:27:54;;;;;;;7.47;6.70;;;;;;;-141.28;100.00;45264.16;5090943;28;20703;-76
2022/08/07 05:30:26;;;;;;;8.17;7.03;;;;;;;-141.28;100.00;45285.69;5090576;28;20237;-75
2022/08/07 05:32:57;;;;;;;7.57;6.87;;;;;;;-141.28;100.00;45297.47;5089274;28;20195;-76
2022/08/07 05:35:28;;;;;;;8.70;6.87;;;;;;;-141.28;100.00;45328.81;5091045;28;20219;-75
2022/08/07 05:37:58;;;;;;;9.33;7.23;;;;;;;-141.28;100.00;45334.69;5088705;28;20645;-77
2022/08/07 05:40:25;;;;;;;34.13;8.83;;;;;;;-141.28;100.00;45326.84;5090376;28;20615;-76
2022/08/07 05:42:53;;;;;;;12.20;6.90;;;;;;;-141.28;100.00;45307.25;5086377;28;20282;-77
2022/08/07 05:45:27;;;;;;;7.77;6.70;;;;;;;-141.28;100.00;45352.34;5080789;28;20295;-75
2022/08/07 05:47:55;;;;;;;7.73;6.93;;;;;;;-141.28;100.00;45326.84;5087530;28;20192;-76
2022/08/07 05:50:23;;;;;;;9.73;7.50;;;;;;;-141.28;100.00;45356.25;5090030;28;20223;-75
2022/08/07 05:52:50;;;;;;;8.53;7.03;;;;;;;-141.28;100.00;45332.75;5083819;28;20206;-76
2022/08/07 05:55:21;;;;;;;8.87;7.17;;;;;;;-141.28;100.00;45336.66;5083081;28;20567;-78
2022/08/07 05:57:50;;;;;;;7.60;6.67;;;;;;;-141.28;100.00;45340.59;5079947;28;20227;-75
2022/08/07 06:00:19;;;;;;;7.83;6.80;;;;;;;-141.28;100.00;45336.66;5071691;28;20224;-76
2022/08/07 06:02:51;;;;;;;7.67;6.67;;;;;;;-141.28;100.00;45342.53;5074025;28;20197;-74
2022/08/07 06:05:27;;;;;;;6.70;6.00;;;;;;;-141.28;100.00;45368.03;5071868;28;20562;-74
2022/08/07 06:07:55;;;;;;;7.20;6.37;;;;;;;-141.28;100.00;45364.09;5071969;28;20196;-76
2022/08/07 06:10:23;;;;;;;8.10;6.83;;;;;;;-141.28;100.00;45379.78;5072017;28;20189;-76
2022/08/07 06:12:51;;;;;;;8.97;6.37;;;;;;;-141.28;100.00;45395.47;5072017;28;20234;-74
2022/08/07 06:15:19;;;;;;;9.07;6.93;;;;;;;-141.28;100.00;45422.91;5071250;28;20200;-75
2022/08/07 06:17:52;;;;;;;7.17;6.33;;;;;;;-141.28;100.00;45440.53;5071395;28;20200;-75
2022/08/07 06:20:21;;;;;;;11.07;6.13;;;;;;;-141.28;100.00;45497.38;5071649;28;20230;-75
2022/08/07 06:22:53;;;;;;;7.17;6.27;;;;;;;-141.28;100.00;45491.50;5071411;28;20207;-75
2022/08/07 06:25:21;;;;;;;7.47;6.77;;;;;;;-141.28;100.00;45471.91;5070422;28;20203;-75
2022/08/07 06:27:49;;;;;;;7.23;6.50;;;;;;;-141.28;100.00;45501.28;5071350;28;20212;-77
2022/08/07 06:30:17;;;;;;;9.13;7.07;;;;;;;-141.28;100.00;45469.94;5083612;28;20203;-76
2022/08/07 06:32:44;;;;;;;8.17;6.80;;;;;;;-141.28;100.00;45458.19;5085011;28;20203;-76
2022/08/07 06:35:14;;;;;;;7.57;6.77;;;;;;;-141.28;100.00;45477.78;5083032;28;20266;-77
2022/08/07 06:37:44;;;;;;;9.13;6.80;;;;;;;-141.28;100.00;45491.50;5071472;28;20208;-73
2022/08/07 06:40:12;;;;;;;8.20;7.17;;;;;;;-141.28;100.00;45509.13;5083165;28;20238;-75
2022/08/07 06:42:41;;;;;;;7.50;6.63;;;;;;;-141.28;100.00;45558.13;5079454;28;20225;-76
2022/08/07 06:45:13;;;;;;;8.53;6.67;;;;;;;-141.28;100.00;45536.56;5087610;28;20566;-75
2022/08/07 06:47:41;;;;;;;7.27;6.57;;;;;;;-141.28;100.00;45536.56;5073808;28;20568;-76
2022/08/07 06:50:09;;;;;;;7.57;6.87;;;;;;;-141.28;100.00;45552.25;5084917;28;20651;-76
2022/08/07 06:52:39;;;;;;;8.43;6.93;;;;;;;-141.28;100.00;45550.28;5090964;28;20207;-74
2022/08/07 06:55:13;;;;;;;10.50;7.00;;;;;;;-141.28;100.00;45560.09;5090160;28;20230;-76
2022/08/07 06:57:42;;;;;;;9.80;7.40;;;;;;;-141.28;100.00;45548.34;5081196;28;20280;-75
2022/08/07 07:00:10;;;;;;;8.23;7.27;;;;;;;-141.28;100.00;45516.97;5085434;28;20231;-74
2022/08/07 07:02:39;;;;;;;8.53;7.50;;;;;;;-141.28;100.00;45544.41;5085144;28;20188;-76
2022/08/07 07:05:07;;;;;;;8.20;6.83;;;;;;;-141.28;100.00;45573.81;5081396;28;20289;-76
2022/08/07 07:07:35;;;;;;;8.27;7.20;;;;;;;-141.28;100.00;45567.94;5071160;28;20226;-76
2022/08/07 07:10:06;;;;;;;7.77;6.97;;;;;;;-141.28;100.00;45569.91;5071383;28;20196;-76
2022/08/07 07:12:40;;;;;;;7.23;6.53;;;;;;;-141.28;100.00;45565.97;5071318;28;20200;-74
2022/08/07 07:15:13;;;;;;;9.50;7.40;;;;;;;-141.28;100.00;45585.56;5071080;28;20208;-76
2022/08/07 07:17:45;;;;;;;8.17;7.07;;;;;;;-141.28;100.00;45579.69;5071476;28;20276;-74
2022/08/07 07:20:18;;;;;;;9.57;7.10;;;;;;;-141.28;100.00;45599.28;5058212;28;20278;-77
2022/08/07 07:22:47;;;;;;;8.83;7.17;;;;;;;-141.28;100.00;45601.25;5077367;28;20206;-73
2022/08/07 07:25:17;;;;;;;7.77;6.90;;;;;;;-141.28;100.00;45618.91;5074673;28;20194;-76
2022/08/07 07:27:51;;;;;;;9.87;7.43;;;;;;;-141.28;100.00;45601.25;5070818;28;20704;-75
2022/08/07 07:30:24;;;;;;;8.87;6.90;;;;;;;-141.28;100.00;45662.00;5070734;28;20234;-75
2022/08/07 07:32:53;;;;;;;11.20;6.87;;;;;;;-141.28;100.00;45695.34;5072315;28;20258;-74
2022/08/07 07:35:24;;;;;;;9.90;7.17;;;;;;;-141.28;100.00;45712.97;5081956;28;20237;-75
2022/08/07 07:37:53;;;;;;;10.33;7.00;;;;;;;-141.28;100.00;45720.81;5077098;28;20200;-76
2022/08/07 07:40:23;;;;;;;8.40;7.60;;;;;;;-141.28;100.00;45756.09;5084899;28;20229;-75
2022/08/07 07:42:56;;;;;;;8.00;6.80;;;;;;;-141.28;100.00;45842.34;5076424;28;20203;-75
2022/08/07 07:45:27;;;;;;;13.77;6.70;;;;;;;-141.28;100.00;45881.56;5073133;28;20281;-75
2022/08/07 07:47:57;;;;;;;9.03;7.00;;;;;;;-141.28;100.00;45928.59;5073844;28;20663;-78
2022/08/07 07:50:27;;;;;;;7.73;6.40;;;;;;;-141.28;100.00;45967.81;5074721;28;20217;-75
2022/08/07 07:52:56;;;;;;;9.07;6.90;;;;;;;-141.28;100.00;45967.81;5074419;28;20190;-77
2022/08/07 07:55:27;;;;;;;7.83;7.03;;;;;;;-141.28;100.00;46050.13;5075006;28;20199;-76
2022/08/07 07:57:56;;;;;;;10.17;7.53;;;;;;;-141.28;100.00;46152.06;5074445;28;20232;-76
2022/08/07 08:00:36;;;;;;;10.93;8.80;;;;;;;-141.28;100.00;46179.50;5074885;28;20228;-75
2022/08/07 08:03:08;;;;;;;12.93;9.77;;;;;;;-141.28;100.00;46152.06;5073669;28;20213;-75
2022/08/07 08:05:38;;;;;;;11.63;10.43;;;;;;;-141.28;100.00;46081.50;5073913;28;20292;-75
2022/08/07 08:08:06;;;;;;;13.23;9.80;;;;;;;-141.28;100.00;46057.97;5073870;28;20223;-77
2022/08/07 08:10:36;;;;;;;14.40;10.20;;;;;;;-141.28;100.00;46091.31;5074014;28;20204;-78
2022/08/07 08:13:04;;;;;;;9.73;8.70;;;;;;;-141.28;100.00;46208.91;5073891;28;20663;-75
2022/08/07 08:15:38;;;;;;;9.13;8.13;;;;;;;-141.28;100.00;46252.06;5073875;28;20205;-75
2022/08/07 08:18:09;;;;;;;9.10;7.33;;;;;;;-141.28;100.00;46357.91;5073738;28;20191;-74
2022/08/07 08:20:39;;;;;;;8.50;7.70;;;;;;;-141.28;100.00;46257.94;5073214;28;20721;-74
2022/08/07 08:28:52;;;;;;;9.00;7.27;;;;;;;-141.28;100.00;46381.44;5035122;28;20217;-78
2022/08/07 08:31:23;;;;;;;10.93;7.53;;;;;;;-141.28;100.00;46326.53;5073353;28;20680;-75
2022/08/07 08:33:53;;;;;;;11.33;7.63;;;;;;;-141.28;100.00;46428.50;5073597;28;20207;-75
2022/08/07 08:36:24;;;;;;;8.70;7.30;;;;;;;-141.28;100.00;46481.44;5073365;28;20383;-76
2022/08/07 08:38:54;;;;;;;10.27;7.13;;;;;;;-141.28;100.00;46540.25;5072940;28;20565;-74
2022/08/07 08:41:32;;;;;;;8.90;7.57;;;;;;;-141.28;100.00;46595.13;5073497;28;20220;-77
2022/08/07 08:44:07;;;;;;;12.60;7.87;;;;;;;-141.28;100.00;46608.88;5073488;28;20209;-76
2022/08/07 08:46:43;;;;;;;7.83;7.03;;;;;;;-141.28;100.00;46642.19;5073081;28;20259;-77
2022/08/07 08:49:19;;;;;;;8.50;7.60;;;;;;;-141.28;100.00;46732.38;5072763;28;20203;-76
2022/08/07 08:51:56;;;;;;;8.63;7.73;;;;;;;-141.28;100.00;46734.34;5091487;28;20198;-78
2022/08/07 08:54:30;;;;;;;8.07;7.13;;;;;;;-141.28;100.00;46685.31;5092403;28;20253;-76
2022/08/07 08:57:05;;;;;;;8.93;7.03;;;;;;;-141.28;100.00;46736.31;5092910;28;20202;-78
2022/08/07 08:59:45;;;;;;;12.97;7.60;;;;;;;-141.28;100.00;46771.59;5075867;28;20714;-77
2022/08/07 09:02:23;;;;;;;9.50;6.97;;;;;;;-141.28;100.00;46834.34;5072418;28;20560;-76
2022/08/07 09:04:57;;;;;;;10.27;9.17;;;;;;;-141.28;100.00;46936.31;5072803;28;20291;-75
2022/08/07 09:07:35;;;;;;;8.40;7.50;;;;;;;-141.28;100.00;46936.31;5078009;28;20201;-75
2022/08/07 09:10:20;;;;;;;10.70;8.47;;;;;;;-141.28;100.00;46936.31;5091721;28;20320;-75
2022/08/07 09:12:57;;;;;;;8.43;6.90;;;;;;;-141.28;100.00;47046.09;5091455;28;20207;-75
2022/08/07 09:15:39;;;;;;;9.23;7.77;;;;;;;-141.28;100.00;47112.78;5091419;28;20255;-76
2022/08/07 09:18:35;;;;;;;7.63;6.93;;;;;;;-141.28;100.00;47052.00;5076974;28;20199;-75
2022/08/07 09:21:12;;;;;;;7.67;6.93;;;;;;;-141.28;100.00;47097.09;5060433;28;20216;-75
2022/08/07 09:23:53;;;;;;;7.17;6.47;;;;;;;-141.28;100.00;47187.28;5088743;28;20221;-75
2022/08/07 09:26:33;;;;;;;7.20;6.03;;;;;;;-141.28;100.00;47250.03;5080668;28;20223;-75
2022/08/07 09:29:21;;;;;;;8.40;5.93;;;;;;;-141.28;100.00;47336.34;5072282;28;20192;-75
2022/08/07 09:31:58;;;;;;;6.90;6.13;;;;;;;-141.28;100.00;47473.59;5072426;28;20199;-77
2022/08/07 09:34:31;;;;;;;9.60;6.33;;;;;;;-141.28;100.00;47548.13;5083572;28;20282;-77
2022/08/07 09:37:04;;;;;;;8.03;5.80;;;;;;;-141.28;100.00;47885.47;5091655;28;20231;-75
2022/08/07 09:39:47;;;;;;;7.90;6.63;;;;;;;-141.28;100.00;48116.91;5091201;28;20301;-76
2022/08/07 09:42:27;;;;;;;6.87;6.20;;;;;;;-141.28;100.00;48136.53;5082856;28;20204;-75
2022/08/07 09:45:07;;;;;;;8.00;6.20;;;;;;;-141.28;100.00;48267.97;5080731;28;20233;-75
2022/08/07 09:47:45;;;;;;;10.27;6.43;;;;;;;-141.28;100.00;48568.09;5072636;28;20196;-77
2022/08/07 09:50:23;;;;;;;6.83;6.10;;;;;;;-141.28;100.00;49093.88;5091695;28;20759;-76
2022/08/07 09:52:58;;;;;;;7.37;6.10;;;;;;;-141.28;100.00;49042.88;5091192;28;20218;-74
2022/08/07 09:55:35;;;;;;;7.00;5.50;;;;;;;-141.28;100.00;48954.59;5091319;28;20197;-75
2022/08/07 09:58:25;;;;;;;6.40;5.80;;;;;;;-141.28;100.00;48960.47;5081617;28;20204;-76
2022/08/07 10:01:15;;;;;;;6.87;5.90;;;;;;;-141.28;100.00;49066.41;5060746;28;20233;-74
2022/08/07 10:04:24;;;;;;;6.50;5.70;;;;;;;-141.28;100.00;49033.06;5071737;28;20208;-75
2022/08/07 10:07:11;;;;;;;6.07;5.47;;;;;;;-141.28;100.00;49382.31;5071562;28;20200;-77
2022/08/07 10:09:55;;;;;;;6.00;5.40;;;;;;;-141.28;100.00;49019.31;5072048;28;20208;-75
2022/08/07 10:12:47;;;;;;;8.00;5.83;;;;;;;-141.28;100.00;48893.75;5071427;28;20693;-76
2022/08/07 10:15:39;;;;;;;6.90;5.70;;;;;;;-141.28;100.00;48936.91;5071068;28;20206;-76
2022/08/07 10:18:31;;;;;;;10.07;6.10;;;;;;;-141.28;100.00;48870.22;5072438;28;20208;-76
2022/08/07 10:21:12;;;;;;;6.33;5.40;;;;;;;-141.28;100.00;48827.06;5063091;28;20222;-76
2022/08/07 10:23:58;;;;;;;6.40;5.80;;;;;;;-141.28;100.00;48750.53;5072320;28;20203;-77
2022/08/07 10:26:46;;;;;;;6.47;5.77;;;;;;;-141.28;100.00;48805.47;5072266;28;20223;-75
2022/08/07 10:29:34;;;;;;;7.87;6.30;;;;;;;-141.28;100.00;48885.91;5072134;28;20590;-74
2022/08/07 10:32:26;;;;;;;6.57;5.97;;;;;;;-141.28;100.00;48976.16;5060466;28;20252;-76
2022/08/07 10:35:06;;;;;;;10.27;6.10;;;;;;;-141.28;100.00;48991.84;5071066;28;20277;-76
2022/08/07 10:37:45;;;;;;;8.03;6.33;;;;;;;-141.28;100.00;49091.91;5072927;28;20200;-77
2022/08/07 10:40:19;;;;;;;6.47;5.57;;;;;;;-141.28;100.00;49115.47;5061767;28;20220;-77
2022/08/07 10:42:58;;;;;;;7.83;5.60;;;;;;;-141.28;100.00;48999.72;5073628;28;20215;-76
2022/08/07 10:45:31;;;;;;;6.50;5.43;;;;;;;-141.28;100.00;49015.41;5072866;28;20204;-76
2022/08/07 10:48:10;;;;;;;7.20;5.73;;;;;;;-141.28;100.00;49062.50;5071525;28;20215;-76
2022/08/07 10:50:46;;;;;;;5.63;5.17;;;;;;;-141.28;100.00;49144.91;5073465;28;20196;-76
2022/08/07 10:53:22;;;;;;;10.27;5.83;;;;;;;-141.28;100.00;49115.47;5072864;28;20254;-76
2022/08/07 10:55:53;;;;;;;6.40;5.70;;;;;;;-141.28;100.00;48964.38;5072802;28;20192;-76
2022/08/07 10:58:51;;;;;;;8.87;5.70;;;;;;;-141.28;100.00;49125.28;5072785;28;20283;-75
2022/08/07 11:01:30;;;;;;;8.27;5.70;;;;;;;-141.28;100.00;49074.25;5057667;28;20228;-77
2022/08/07 11:04:04;;;;;;;14.13;5.97;;;;;;;-141.28;100.00;49093.88;5070875;28;20213;-76
2022/08/07 11:06:42;;;;;;;6.80;5.87;;;;;;;-141.28;100.00;48611.25;5074834;28;20275;-76
2022/08/07 11:09:14;;;;;;;10.73;6.53;;;;;;;-141.28;100.00;48438.63;5075833;28;20268;-76
2022/08/07 11:11:47;;;;;;;7.23;6.53;;;;;;;-141.28;100.00;48297.38;5075252;28;20206;-75
2022/08/07 11:14:20;;;;;;;7.80;5.70;;;;;;;-141.28;100.00;48136.53;5079845;28;20213;-75
2022/08/07 11:16:54;;;;;;;7.10;6.40;;;;;;;-141.28;100.00;48215.00;5074973;28;20199;-74
2022/08/07 11:19:34;;;;;;;6.63;6.03;;;;;;;-141.28;100.00;48391.53;5084482;28;20202;-76
2022/08/07 11:22:10;;;;;;;8.73;6.10;;;;;;;-141.28;100.00;48911.41;5093871;28;20597;-76
2022/08/07 11:24:45;;;;;;;7.00;6.30;;;;;;;-141.28;100.00;49050.72;5095027;28;20195;-75
2022/08/07 11:27:22;;;;;;;7.27;5.53;;;;;;;-141.28;100.00;49101.72;5069962;28;20208;-75
2022/08/07 11:29:55;;;;;;;9.50;5.80;;;;;;;-141.28;100.00;48999.72;5078417;28;20215;-75
2022/08/07 11:32:33;;;;;;;7.23;5.77;;;;;;;-141.28;100.00;48658.34;5074193;28;20200;-75
2022/08/07 11:35:07;;;;;;;6.50;5.60;;;;;;;-141.28;100.00;48593.59;5086947;28;20288;-77